sensor_id;sensor_type;location;lat;lon;timestamp;temperature;humidity
78467;SHT31;67759;51.972;5.650;2023-04-24T00:00:36;11.4;76.7
78467;SHT31;67759;51.972;5.650;2023-04-24T00:03:08;11.4;76.8
78467;SHT31;67759;51.972;5.650;2023-04-24T00:05:38;11.5;76.4
78467;SHT31;67759;51.972;5.650;2023-04-24T00:08:09;11.5;76.7
78467;SHT31;67759;51.972;5.650;2023-04-24T00:10:39;11.5;76.3
78467;SHT31;67759;51.972;5.650;2023-04-24T00:13:09;11.5;76.3
78467;SHT31;67759;51.972;5.650;2023-04-24T00:15:39;11.5;76.5
78467;SHT31;67759;51.972;5.650;2023-04-24T00:18:10;11.5;76.2
78467;SHT31;67759;51.972;5.650;2023-04-24T00:20:41;11.5;75.8
78467;SHT31;67759;51.972;5.650;2023-04-24T00:23:11;11.5;75.7
78467;SHT31;67759;51.972;5.650;2023-04-24T00:25:40;11.5;75.6
78467;SHT31;67759;51.972;5.650;2023-04-24T00:28:10;11.6;75.8
78467;SHT31;67759;51.972;5.650;2023-04-24T00:30:40;11.6;75.7
78467;SHT31;67759;51.972;5.650;2023-04-24T00:33:11;11.6;75.8
78467;SHT31;67759;51.972;5.650;2023-04-24T00:35:42;11.6;75.6
78467;SHT31;67759;51.972;5.650;2023-04-24T00:38:12;11.6;75.5
78467;SHT31;67759;51.972;5.650;2023-04-24T00:40:42;11.6;75.2
78467;SHT31;67759;51.972;5.650;2023-04-24T00:43:12;11.6;75.6
78467;SHT31;67759;51.972;5.650;2023-04-24T00:45:42;11.6;75.9
78467;SHT31;67759;51.972;5.650;2023-04-24T00:48:13;11.6;76.2
78467;SHT31;67759;51.972;5.650;2023-04-24T00:50:46;11.6;76.5
78467;SHT31;67759;51.972;5.650;2023-04-24T00:53:16;11.6;76.5
78467;SHT31;67759;51.972;5.650;2023-04-24T00:55:45;11.5;76.9
78467;SHT31;67759;51.972;5.650;2023-04-24T00:58:16;11.5;77.5
78467;SHT31;67759;51.972;5.650;2023-04-24T01:00:46;11.5;77.6
78467;SHT31;67759;51.972;5.650;2023-04-24T01:03:16;11.4;76.9
78467;SHT31;67759;51.972;5.650;2023-04-24T01:05:49;11.4;75.6
78467;SHT31;67759;51.972;5.650;2023-04-24T01:08:23;11.3;75.2
78467;SHT31;67759;51.972;5.650;2023-04-24T01:10:55;11.2;75.8
78467;SHT31;67759;51.972;5.650;2023-04-24T01:13:29;11.2;76.6
78467;SHT31;67759;51.972;5.650;2023-04-24T01:16:00;11.2;76.6
78467;SHT31;67759;51.972;5.650;2023-04-24T01:18:30;11.1;77.1
78467;SHT31;67759;51.972;5.650;2023-04-24T01:21:04;11.1;77.1
78467;SHT31;67759;51.972;5.650;2023-04-24T01:23:34;11.1;77.3
78467;SHT31;67759;51.972;5.650;2023-04-24T01:26:05;11.1;77.4
78467;SHT31;67759;51.972;5.650;2023-04-24T01:28:36;11.1;77.4
78467;SHT31;67759;51.972;5.650;2023-04-24T01:31:09;11.1;77.5
78467;SHT31;67759;51.972;5.650;2023-04-24T01:33:39;11.1;77.9
78467;SHT31;67759;51.972;5.650;2023-04-24T01:36:13;11.1;77.8
78467;SHT31;67759;51.972;5.650;2023-04-24T01:38:44;11.1;78.0
78467;SHT31;67759;51.972;5.650;2023-04-24T01:41:14;11.1;77.8
78467;SHT31;67759;51.972;5.650;2023-04-24T01:43:44;11.1;77.8
78467;SHT31;67759;51.972;5.650;2023-04-24T01:46:15;11.1;77.9
78467;SHT31;67759;51.972;5.650;2023-04-24T01:48:45;11.1;78.3
78467;SHT31;67759;51.972;5.650;2023-04-24T01:51:15;11.1;78.4
78467;SHT31;67759;51.972;5.650;2023-04-24T01:53:45;11.1;78.5
78467;SHT31;67759;51.972;5.650;2023-04-24T01:56:15;11.1;78.3
78467;SHT31;67759;51.972;5.650;2023-04-24T01:58:44;11.1;78.8
78467;SHT31;67759;51.972;5.650;2023-04-24T02:01:17;11.2;79.2
78467;SHT31;67759;51.972;5.650;2023-04-24T02:03:47;11.2;78.9
78467;SHT31;67759;51.972;5.650;2023-04-24T02:06:17;11.2;78.9
78467;SHT31;67759;51.972;5.650;2023-04-24T02:08:47;11.3;78.4
78467;SHT31;67759;51.972;5.650;2023-04-24T02:11:19;11.3;77.9
78467;SHT31;67759;51.972;5.650;2023-04-24T02:13:49;11.3;78.0
78467;SHT31;67759;51.972;5.650;2023-04-24T02:16:20;11.3;78.3
78467;SHT31;67759;51.972;5.650;2023-04-24T02:18:49;11.3;78.4
78467;SHT31;67759;51.972;5.650;2023-04-24T02:21:19;11.3;78.4
78467;SHT31;67759;51.972;5.650;2023-04-24T02:23:48;11.4;78.6
78467;SHT31;67759;51.972;5.650;2023-04-24T02:26:18;11.4;78.8
78467;SHT31;67759;51.972;5.650;2023-04-24T02:28:48;11.4;78.8
78467;SHT31;67759;51.972;5.650;2023-04-24T02:31:20;11.4;78.9
78467;SHT31;67759;51.972;5.650;2023-04-24T02:33:50;11.4;78.7
78467;SHT31;67759;51.972;5.650;2023-04-24T02:36:19;11.4;78.9
78467;SHT31;67759;51.972;5.650;2023-04-24T02:38:50;11.4;78.8
78467;SHT31;67759;51.972;5.650;2023-04-24T02:41:20;11.4;78.1
78467;SHT31;67759;51.972;5.650;2023-04-24T02:43:49;11.4;78.1
78467;SHT31;67759;51.972;5.650;2023-04-24T02:46:20;11.4;78.2
78467;SHT31;67759;51.972;5.650;2023-04-24T02:48:49;11.4;78.3
78467;SHT31;67759;51.972;5.650;2023-04-24T02:51:19;11.4;78.2
78467;SHT31;67759;51.972;5.650;2023-04-24T02:53:49;11.3;78.4
78467;SHT31;67759;51.972;5.650;2023-04-24T02:56:18;11.3;77.8
78467;SHT31;67759;51.972;5.650;2023-04-24T02:58:48;11.3;77.6
78467;SHT31;67759;51.972;5.650;2023-04-24T03:01:17;11.3;77.6
78467;SHT31;67759;51.972;5.650;2023-04-24T03:03:48;11.3;77.3
78467;SHT31;67759;51.972;5.650;2023-04-24T03:06:17;11.3;77.7
78467;SHT31;67759;51.972;5.650;2023-04-24T03:08:48;11.4;77.6
78467;SHT31;67759;51.972;5.650;2023-04-24T03:11:18;11.4;77.7
78467;SHT31;67759;51.972;5.650;2023-04-24T03:13:48;11.4;78.0
78467;SHT31;67759;51.972;5.650;2023-04-24T03:16:19;11.4;78.2
78467;SHT31;67759;51.972;5.650;2023-04-24T03:18:48;11.4;78.4
78467;SHT31;67759;51.972;5.650;2023-04-24T03:21:18;11.4;78.3
78467;SHT31;67759;51.972;5.650;2023-04-24T03:23:50;11.4;78.5
78467;SHT31;67759;51.972;5.650;2023-04-24T03:26:19;11.3;78.4
78467;SHT31;67759;51.972;5.650;2023-04-24T03:28:49;11.3;78.2
78467;SHT31;67759;51.972;5.650;2023-04-24T03:31:19;11.3;77.5
78467;SHT31;67759;51.972;5.650;2023-04-24T03:33:49;11.3;77.7
78467;SHT31;67759;51.972;5.650;2023-04-24T03:36:20;11.3;77.5
78467;SHT31;67759;51.972;5.650;2023-04-24T03:38:49;11.3;77.7
78467;SHT31;67759;51.972;5.650;2023-04-24T03:41:21;11.3;77.9
78467;SHT31;67759;51.972;5.650;2023-04-24T03:43:51;11.2;78.0
78467;SHT31;67759;51.972;5.650;2023-04-24T03:46:20;11.2;78.2
78467;SHT31;67759;51.972;5.650;2023-04-24T03:48:50;11.2;78.1
78467;SHT31;67759;51.972;5.650;2023-04-24T03:51:20;11.1;78.6
78467;SHT31;67759;51.972;5.650;2023-04-24T03:53:50;11.1;77.9
78467;SHT31;67759;51.972;5.650;2023-04-24T03:56:20;11.1;78.3
78467;SHT31;67759;51.972;5.650;2023-04-24T03:58:51;11.0;78.5
78467;SHT31;67759;51.972;5.650;2023-04-24T04:01:21;11.0;78.6
78467;SHT31;67759;51.972;5.650;2023-04-24T04:03:52;11.0;78.5
78467;SHT31;67759;51.972;5.650;2023-04-24T04:06:21;11.0;78.3
78467;SHT31;67759;51.972;5.650;2023-04-24T04:08:51;10.9;78.2
78467;SHT31;67759;51.972;5.650;2023-04-24T04:11:20;10.9;77.9
78467;SHT31;67759;51.972;5.650;2023-04-24T04:13:50;10.9;77.9
78467;SHT31;67759;51.972;5.650;2023-04-24T04:16:20;10.8;78.0
78467;SHT31;67759;51.972;5.650;2023-04-24T04:18:49;10.8;78.0
78467;SHT31;67759;51.972;5.650;2023-04-24T04:21:19;10.8;78.6
78467;SHT31;67759;51.972;5.650;2023-04-24T04:23:49;10.8;78.4
78467;SHT31;67759;51.972;5.650;2023-04-24T04:26:18;10.8;78.5
78467;SHT31;67759;51.972;5.650;2023-04-24T04:28:53;10.7;78.6
78467;SHT31;67759;51.972;5.650;2023-04-24T04:31:23;10.7;78.4
78467;SHT31;67759;51.972;5.650;2023-04-24T04:33:54;10.7;78.8
78467;SHT31;67759;51.972;5.650;2023-04-24T04:36:24;10.7;79.0
78467;SHT31;67759;51.972;5.650;2023-04-24T04:38:56;10.7;79.0
78467;SHT31;67759;51.972;5.650;2023-04-24T04:41:26;10.7;79.3
78467;SHT31;67759;51.972;5.650;2023-04-24T04:43:57;10.7;79.7
78467;SHT31;67759;51.972;5.650;2023-04-24T04:46:31;10.8;79.4
78467;SHT31;67759;51.972;5.650;2023-04-24T04:49:02;10.8;78.7
78467;SHT31;67759;51.972;5.650;2023-04-24T04:51:32;10.8;78.8
78467;SHT31;67759;51.972;5.650;2023-04-24T04:54:02;10.8;78.6
78467;SHT31;67759;51.972;5.650;2023-04-24T04:56:32;10.8;78.3
78467;SHT31;67759;51.972;5.650;2023-04-24T04:59:02;10.8;78.1
78467;SHT31;67759;51.972;5.650;2023-04-24T05:01:33;10.8;77.5
78467;SHT31;67759;51.972;5.650;2023-04-24T05:04:06;10.8;77.5
78467;SHT31;67759;51.972;5.650;2023-04-24T05:06:35;10.8;77.5
78467;SHT31;67759;51.972;5.650;2023-04-24T05:09:05;10.8;77.5
78467;SHT31;67759;51.972;5.650;2023-04-24T05:11:35;10.8;77.7
78467;SHT31;67759;51.972;5.650;2023-04-24T05:14:04;10.8;77.7
78467;SHT31;67759;51.972;5.650;2023-04-24T05:16:34;10.8;77.8
78467;SHT31;67759;51.972;5.650;2023-04-24T05:19:04;10.8;78.5
78467;SHT31;67759;51.972;5.650;2023-04-24T05:21:35;10.8;78.3
78467;SHT31;67759;51.972;5.650;2023-04-24T05:24:07;10.8;78.0
78467;SHT31;67759;51.972;5.650;2023-04-24T05:26:36;10.8;78.8
78467;SHT31;67759;51.972;5.650;2023-04-24T05:29:08;10.8;78.6
78467;SHT31;67759;51.972;5.650;2023-04-24T05:31:37;10.9;78.5
78467;SHT31;67759;51.972;5.650;2023-04-24T05:34:07;10.9;78.5
78467;SHT31;67759;51.972;5.650;2023-04-24T05:36:37;10.9;78.3
78467;SHT31;67759;51.972;5.650;2023-04-24T05:39:06;10.9;78.9
78467;SHT31;67759;51.972;5.650;2023-04-24T05:41:36;11.0;78.7
78467;SHT31;67759;51.972;5.650;2023-04-24T05:44:06;11.0;78.4
78467;SHT31;67759;51.972;5.650;2023-04-24T05:46:38;11.0;79.0
78467;SHT31;67759;51.972;5.650;2023-04-24T05:49:07;11.0;78.8
78467;SHT31;67759;51.972;5.650;2023-04-24T05:51:37;11.1;78.8
78467;SHT31;67759;51.972;5.650;2023-04-24T05:54:07;11.1;78.7
78467;SHT31;67759;51.972;5.650;2023-04-24T05:56:38;11.1;78.3
78467;SHT31;67759;51.972;5.650;2023-04-24T05:59:08;11.2;78.0
78467;SHT31;67759;51.972;5.650;2023-04-24T06:01:38;11.3;77.9
78467;SHT31;67759;51.972;5.650;2023-04-24T06:04:08;11.3;77.6
78467;SHT31;67759;51.972;5.650;2023-04-24T06:06:38;11.3;77.3
78467;SHT31;67759;51.972;5.650;2023-04-24T06:09:07;11.3;76.2
78467;SHT31;67759;51.972;5.650;2023-04-24T06:11:37;11.3;76.9
78467;SHT31;67759;51.972;5.650;2023-04-24T06:14:07;11.3;77.4
78467;SHT31;67759;51.972;5.650;2023-04-24T06:16:37;11.3;77.4
78467;SHT31;67759;51.972;5.650;2023-04-24T06:19:07;11.3;77.5
78467;SHT31;67759;51.972;5.650;2023-04-24T06:21:36;11.3;77.4
78467;SHT31;67759;51.972;5.650;2023-04-24T06:24:06;11.3;77.8
78467;SHT31;67759;51.972;5.650;2023-04-24T06:26:36;11.2;78.2
78467;SHT31;67759;51.972;5.650;2023-04-24T06:29:06;11.2;78.3
78467;SHT31;67759;51.972;5.650;2023-04-24T06:31:36;11.2;77.7
78467;SHT31;67759;51.972;5.650;2023-04-24T06:34:07;11.1;77.5
78467;SHT31;67759;51.972;5.650;2023-04-24T06:36:37;11.1;78.4
78467;SHT31;67759;51.972;5.650;2023-04-24T06:39:06;11.0;78.2
78467;SHT31;67759;51.972;5.650;2023-04-24T06:41:36;10.9;78.8
78467;SHT31;67759;51.972;5.650;2023-04-24T06:44:07;10.9;78.7
78467;SHT31;67759;51.972;5.650;2023-04-24T06:46:37;10.8;79.3
78467;SHT31;67759;51.972;5.650;2023-04-24T06:49:06;10.7;79.1
78467;SHT31;67759;51.972;5.650;2023-04-24T06:51:36;10.6;78.8
78467;SHT31;67759;51.972;5.650;2023-04-24T06:54:07;10.5;79.6
78467;SHT31;67759;51.972;5.650;2023-04-24T06:56:37;10.4;80.7
78467;SHT31;67759;51.972;5.650;2023-04-24T06:59:07;10.4;80.9
78467;SHT31;67759;51.972;5.650;2023-04-24T07:01:36;10.3;80.2
78467;SHT31;67759;51.972;5.650;2023-04-24T07:04:05;10.3;80.5
78467;SHT31;67759;51.972;5.650;2023-04-24T07:06:35;10.2;80.8
78467;SHT31;67759;51.972;5.650;2023-04-24T07:09:05;10.2;81.7
78467;SHT31;67759;51.972;5.650;2023-04-24T07:11:36;10.1;81.4
78467;SHT31;67759;51.972;5.650;2023-04-24T07:14:08;10.0;81.9
78467;SHT31;67759;51.972;5.650;2023-04-24T07:16:38;10.0;82.0
78467;SHT31;67759;51.972;5.650;2023-04-24T07:19:08;10.0;81.8
78467;SHT31;67759;51.972;5.650;2023-04-24T07:21:37;9.9;82.1
78467;SHT31;67759;51.972;5.650;2023-04-24T07:24:07;9.9;82.6
78467;SHT31;67759;51.972;5.650;2023-04-24T07:26:38;9.9;82.3
78467;SHT31;67759;51.972;5.650;2023-04-24T07:29:09;9.9;82.8
78467;SHT31;67759;51.972;5.650;2023-04-24T07:31:40;9.9;82.7
78467;SHT31;67759;51.972;5.650;2023-04-24T07:34:10;9.9;82.7
78467;SHT31;67759;51.972;5.650;2023-04-24T07:36:40;9.9;83.1
78467;SHT31;67759;51.972;5.650;2023-04-24T07:39:12;9.9;83.4
78467;SHT31;67759;51.972;5.650;2023-04-24T07:41:41;9.9;82.4
78467;SHT31;67759;51.972;5.650;2023-04-24T07:44:11;10.0;81.1
78467;SHT31;67759;51.972;5.650;2023-04-24T07:46:41;10.0;81.1
78467;SHT31;67759;51.972;5.650;2023-04-24T07:49:10;10.0;81.2
78467;SHT31;67759;51.972;5.650;2023-04-24T07:51:40;10.0;80.2
78467;SHT31;67759;51.972;5.650;2023-04-24T07:54:10;10.0;80.7
78467;SHT31;67759;51.972;5.650;2023-04-24T07:56:40;9.9;80.9
78467;SHT31;67759;51.972;5.650;2023-04-24T07:59:10;9.9;81.3
78467;SHT31;67759;51.972;5.650;2023-04-24T08:01:40;9.9;80.9
78467;SHT31;67759;51.972;5.650;2023-04-24T08:04:11;10.0;81.0
78467;SHT31;67759;51.972;5.650;2023-04-24T08:06:41;10.0;80.7
78467;SHT31;67759;51.972;5.650;2023-04-24T08:09:10;10.0;80.1
78467;SHT31;67759;51.972;5.650;2023-04-24T08:11:40;10.0;80.2
78467;SHT31;67759;51.972;5.650;2023-04-24T08:14:10;10.0;80.3
78467;SHT31;67759;51.972;5.650;2023-04-24T08:16:40;9.9;80.3
78467;SHT31;67759;51.972;5.650;2023-04-24T08:19:10;9.9;80.8
78467;SHT31;67759;51.972;5.650;2023-04-24T08:21:41;9.9;80.6
78467;SHT31;67759;51.972;5.650;2023-04-24T08:24:10;9.9;80.5
78467;SHT31;67759;51.972;5.650;2023-04-24T08:26:40;9.9;81.1
78467;SHT31;67759;51.972;5.650;2023-04-24T08:29:10;9.8;81.4
78467;SHT31;67759;51.972;5.650;2023-04-24T08:31:41;9.8;81.8
78467;SHT31;67759;51.972;5.650;2023-04-24T08:34:11;9.8;81.8
78467;SHT31;67759;51.972;5.650;2023-04-24T08:36:41;9.8;80.7
78467;SHT31;67759;51.972;5.650;2023-04-24T08:39:11;9.8;81.1
78467;SHT31;67759;51.972;5.650;2023-04-24T08:41:41;9.8;81.5
78467;SHT31;67759;51.972;5.650;2023-04-24T08:44:13;9.8;81.2
78467;SHT31;67759;51.972;5.650;2023-04-24T08:46:44;9.8;81.6
78467;SHT31;67759;51.972;5.650;2023-04-24T08:49:15;9.8;81.3
78467;SHT31;67759;51.972;5.650;2023-04-24T08:51:45;9.7;81.1
78467;SHT31;67759;51.972;5.650;2023-04-24T08:54:18;9.7;81.7
78467;SHT31;67759;51.972;5.650;2023-04-24T08:56:48;9.7;81.6
78467;SHT31;67759;51.972;5.650;2023-04-24T08:59:18;9.8;81.5
78467;SHT31;67759;51.972;5.650;2023-04-24T09:01:51;9.8;81.7
78467;SHT31;67759;51.972;5.650;2023-04-24T09:04:22;9.9;81.0
78467;SHT31;67759;51.972;5.650;2023-04-24T09:06:55;9.9;80.1
78467;SHT31;67759;51.972;5.650;2023-04-24T09:09:25;9.9;79.6
78467;SHT31;67759;51.972;5.650;2023-04-24T09:11:55;9.9;80.4
78467;SHT31;67759;51.972;5.650;2023-04-24T09:14:28;9.9;79.7
78467;SHT31;67759;51.972;5.650;2023-04-24T09:17:01;9.9;79.8
78467;SHT31;67759;51.972;5.650;2023-04-24T09:19:32;9.9;79.3
78467;SHT31;67759;51.972;5.650;2023-04-24T09:22:04;10.0;78.3
78467;SHT31;67759;51.972;5.650;2023-04-24T09:24:35;10.0;76.9
78467;SHT31;67759;51.972;5.650;2023-04-24T09:27:04;10.0;76.3
78467;SHT31;67759;51.972;5.650;2023-04-24T09:29:34;10.0;76.1
78467;SHT31;67759;51.972;5.650;2023-04-24T09:32:18;10.1;74.8
78467;SHT31;67759;51.972;5.650;2023-04-24T09:34:48;10.1;75.8
78467;SHT31;67759;51.972;5.650;2023-04-24T09:37:29;10.2;76.0
78467;SHT31;67759;51.972;5.650;2023-04-24T09:40:10;10.2;75.8
78467;SHT31;67759;51.972;5.650;2023-04-24T09:42:43;10.3;75.1
78467;SHT31;67759;51.972;5.650;2023-04-24T09:45:13;10.4;74.0
78467;SHT31;67759;51.972;5.650;2023-04-24T09:47:42;10.4;74.3
78467;SHT31;67759;51.972;5.650;2023-04-24T09:50:15;10.5;74.3
78467;SHT31;67759;51.972;5.650;2023-04-24T09:52:56;10.6;72.8
78467;SHT31;67759;51.972;5.650;2023-04-24T09:55:24;10.7;71.5
78467;SHT31;67759;51.972;5.650;2023-04-24T09:57:58;10.8;70.9
78467;SHT31;67759;51.972;5.650;2023-04-24T10:00:32;10.9;71.7
78467;SHT31;67759;51.972;5.650;2023-04-24T10:03:04;11.1;70.5
78467;SHT31;67759;51.972;5.650;2023-04-24T10:05:37;11.2;69.3
78467;SHT31;67759;51.972;5.650;2023-04-24T10:08:10;11.4;67.8
78467;SHT31;67759;51.972;5.650;2023-04-24T10:10:41;11.5;66.6
78467;SHT31;67759;51.972;5.650;2023-04-24T10:13:13;11.6;67.6
78467;SHT31;67759;51.972;5.650;2023-04-24T10:15:44;11.7;67.8
78467;SHT31;67759;51.972;5.650;2023-04-24T10:18:15;11.8;66.3
78467;SHT31;67759;51.972;5.650;2023-04-24T10:20:48;11.9;62.1
78467;SHT31;67759;51.972;5.650;2023-04-24T10:23:21;12.0;63.4
78467;SHT31;67759;51.972;5.650;2023-04-24T10:25:52;12.0;60.9
78467;SHT31;67759;51.972;5.650;2023-04-24T10:28:24;12.0;61.2
78467;SHT31;67759;51.972;5.650;2023-04-24T10:30:57;12.0;61.3
78467;SHT31;67759;51.972;5.650;2023-04-24T10:33:29;12.0;62.3
78467;SHT31;67759;51.972;5.650;2023-04-24T10:36:01;12.0;60.3
78467;SHT31;67759;51.972;5.650;2023-04-24T10:38:31;12.1;59.8
78467;SHT31;67759;51.972;5.650;2023-04-24T10:41:10;12.1;59.6
78467;SHT31;67759;51.972;5.650;2023-04-24T10:43:48;12.1;61.0
78467;SHT31;67759;51.972;5.650;2023-04-24T10:46:20;12.1;59.8
78467;SHT31;67759;51.972;5.650;2023-04-24T10:48:54;12.1;60.2
78467;SHT31;67759;51.972;5.650;2023-04-24T10:51:26;12.1;60.6
78467;SHT31;67759;51.972;5.650;2023-04-24T10:53:59;12.0;59.5
78467;SHT31;67759;51.972;5.650;2023-04-24T10:56:28;11.9;60.3
78467;SHT31;67759;51.972;5.650;2023-04-24T10:58:58;11.9;60.6
78467;SHT31;67759;51.972;5.650;2023-04-24T11:01:30;11.8;61.3
78467;SHT31;67759;51.972;5.650;2023-04-24T11:04:01;11.8;60.8
78467;SHT31;67759;51.972;5.650;2023-04-24T11:06:33;11.8;61.8
78467;SHT31;67759;51.972;5.650;2023-04-24T11:09:06;11.8;61.5
78467;SHT31;67759;51.972;5.650;2023-04-24T11:11:49;11.9;61.3
78467;SHT31;67759;51.972;5.650;2023-04-24T11:14:22;11.9;61.5
78467;SHT31;67759;51.972;5.650;2023-04-24T11:16:54;11.9;62.4
78467;SHT31;67759;51.972;5.650;2023-04-24T11:19:25;12.0;60.7
78467;SHT31;67759;51.972;5.650;2023-04-24T11:21:58;12.0;60.1
78467;SHT31;67759;51.972;5.650;2023-04-24T11:24:32;12.0;61.8
78467;SHT31;67759;51.972;5.650;2023-04-24T11:27:14;12.1;61.8
78467;SHT31;67759;51.972;5.650;2023-04-24T11:29:49;12.2;61.9
78467;SHT31;67759;51.972;5.650;2023-04-24T11:32:24;12.2;61.6
78467;SHT31;67759;51.972;5.650;2023-04-24T11:34:55;12.3;61.4
78467;SHT31;67759;51.972;5.650;2023-04-24T11:37:28;12.4;62.2
78467;SHT31;67759;51.972;5.650;2023-04-24T11:40:00;12.5;59.5
78467;SHT31;67759;51.972;5.650;2023-04-24T11:42:33;12.6;58.3
78467;SHT31;67759;51.972;5.650;2023-04-24T11:45:07;12.6;59.0
78467;SHT31;67759;51.972;5.650;2023-04-24T11:47:40;12.6;60.2
78467;SHT31;67759;51.972;5.650;2023-04-24T11:50:12;12.6;59.0
78467;SHT31;67759;51.972;5.650;2023-04-24T11:52:43;12.5;59.0
78467;SHT31;67759;51.972;5.650;2023-04-24T11:55:27;12.4;60.0
78467;SHT31;67759;51.972;5.650;2023-04-24T11:58:01;12.4;61.3
78467;SHT31;67759;51.972;5.650;2023-04-24T12:00:32;12.3;63.1
78467;SHT31;67759;51.972;5.650;2023-04-24T12:03:08;12.2;64.7
78467;SHT31;67759;51.972;5.650;2023-04-24T12:05:40;12.1;65.1
78467;SHT31;67759;51.972;5.650;2023-04-24T12:08:11;12.1;64.4
78467;SHT31;67759;51.972;5.650;2023-04-24T12:10:41;12.0;65.5
78467;SHT31;67759;51.972;5.650;2023-04-24T12:13:11;11.9;65.0
78467;SHT31;67759;51.972;5.650;2023-04-24T12:15:41;11.9;64.7
78467;SHT31;67759;51.972;5.650;2023-04-24T12:18:14;11.9;65.0
78467;SHT31;67759;51.972;5.650;2023-04-24T12:20:45;12.0;63.2
78467;SHT31;67759;51.972;5.650;2023-04-24T12:23:27;12.1;64.1
78467;SHT31;67759;51.972;5.650;2023-04-24T12:25:59;12.1;61.6
78467;SHT31;67759;51.972;5.650;2023-04-24T12:28:36;12.2;61.1
78467;SHT31;67759;51.972;5.650;2023-04-24T12:31:07;12.3;59.9
78467;SHT31;67759;51.972;5.650;2023-04-24T12:33:38;12.3;59.8
78467;SHT31;67759;51.972;5.650;2023-04-24T12:36:09;12.3;59.3
78467;SHT31;67759;51.972;5.650;2023-04-24T12:38:43;12.3;59.1
78467;SHT31;67759;51.972;5.650;2023-04-24T12:41:14;12.3;59.6
78467;SHT31;67759;51.972;5.650;2023-04-24T12:43:53;12.3;60.0
78467;SHT31;67759;51.972;5.650;2023-04-24T12:46:23;12.2;59.8
78467;SHT31;67759;51.972;5.650;2023-04-24T12:48:53;12.2;60.5
78467;SHT31;67759;51.972;5.650;2023-04-24T12:51:23;12.2;60.1
78467;SHT31;67759;51.972;5.650;2023-04-24T12:53:53;12.2;60.8
78467;SHT31;67759;51.972;5.650;2023-04-24T12:56:22;12.2;59.4
78467;SHT31;67759;51.972;5.650;2023-04-24T12:58:52;12.3;58.8
78467;SHT31;67759;51.972;5.650;2023-04-24T13:01:22;12.3;58.9
78467;SHT31;67759;51.972;5.650;2023-04-24T13:03:51;12.3;58.2
78467;SHT31;67759;51.972;5.650;2023-04-24T13:06:21;12.3;58.3
78467;SHT31;67759;51.972;5.650;2023-04-24T13:08:50;12.3;58.4
78467;SHT31;67759;51.972;5.650;2023-04-24T13:11:22;12.3;58.7
78467;SHT31;67759;51.972;5.650;2023-04-24T13:13:52;12.4;57.9
78467;SHT31;67759;51.972;5.650;2023-04-24T13:16:21;12.4;57.3
78467;SHT31;67759;51.972;5.650;2023-04-24T13:18:51;12.4;57.6
78467;SHT31;67759;51.972;5.650;2023-04-24T13:21:20;12.4;56.9
78467;SHT31;67759;51.972;5.650;2023-04-24T13:23:51;12.4;56.5
78467;SHT31;67759;51.972;5.650;2023-04-24T13:26:20;12.4;56.1
78467;SHT31;67759;51.972;5.650;2023-04-24T13:28:50;12.4;56.2
78467;SHT31;67759;51.972;5.650;2023-04-24T13:31:20;12.4;56.8
78467;SHT31;67759;51.972;5.650;2023-04-24T13:33:50;12.5;56.6
78467;SHT31;67759;51.972;5.650;2023-04-24T13:36:19;12.5;57.5
78467;SHT31;67759;51.972;5.650;2023-04-24T13:38:50;12.6;56.9
78467;SHT31;67759;51.972;5.650;2023-04-24T13:41:20;12.7;56.2
78467;SHT31;67759;51.972;5.650;2023-04-24T13:43:50;12.9;56.6
78467;SHT31;67759;51.972;5.650;2023-04-24T13:46:19;13.0;53.5
78467;SHT31;67759;51.972;5.650;2023-04-24T13:48:49;13.2;51.9
78467;SHT31;67759;51.972;5.650;2023-04-24T13:51:20;13.3;51.3
78467;SHT31;67759;51.972;5.650;2023-04-24T13:53:49;13.4;51.3
78467;SHT31;67759;51.972;5.650;2023-04-24T13:56:19;13.6;52.7
78467;SHT31;67759;51.972;5.650;2023-04-24T13:58:49;13.7;52.3
78467;SHT31;67759;51.972;5.650;2023-04-24T14:01:21;13.8;51.0
78467;SHT31;67759;51.972;5.650;2023-04-24T14:03:53;13.9;50.7
78467;SHT31;67759;51.972;5.650;2023-04-24T14:06:23;13.9;50.2
78467;SHT31;67759;51.972;5.650;2023-04-24T14:08:53;13.9;50.8
78467;SHT31;67759;51.972;5.650;2023-04-24T14:11:23;13.9;50.5
78467;SHT31;67759;51.972;5.650;2023-04-24T14:13:54;13.9;50.9
78467;SHT31;67759;51.972;5.650;2023-04-24T14:16:25;13.9;50.1
78467;SHT31;67759;51.972;5.650;2023-04-24T14:18:56;13.8;48.6
78467;SHT31;67759;51.972;5.650;2023-04-24T14:21:25;13.8;47.4
78467;SHT31;67759;51.972;5.650;2023-04-24T14:23:57;13.8;47.6
78467;SHT31;67759;51.972;5.650;2023-04-24T14:26:27;13.8;47.4
78467;SHT31;67759;51.972;5.650;2023-04-24T14:28:57;13.8;47.7
78467;SHT31;67759;51.972;5.650;2023-04-24T14:31:28;13.8;49.2
78467;SHT31;67759;51.972;5.650;2023-04-24T14:33:58;13.8;49.0
78467;SHT31;67759;51.972;5.650;2023-04-24T14:36:30;13.9;48.1
78467;SHT31;67759;51.972;5.650;2023-04-24T14:39:01;13.9;48.8
78467;SHT31;67759;51.972;5.650;2023-04-24T14:41:34;14.0;47.5
78467;SHT31;67759;51.972;5.650;2023-04-24T14:44:04;14.0;46.9
78467;SHT31;67759;51.972;5.650;2023-04-24T14:46:36;14.0;48.2
78467;SHT31;67759;51.972;5.650;2023-04-24T14:49:05;14.1;47.3
78467;SHT31;67759;51.972;5.650;2023-04-24T14:51:37;14.1;47.0
78467;SHT31;67759;51.972;5.650;2023-04-24T14:54:07;14.0;47.4
78467;SHT31;67759;51.972;5.650;2023-04-24T14:56:37;14.0;47.8
78467;SHT31;67759;51.972;5.650;2023-04-24T14:59:08;13.9;49.2
78467;SHT31;67759;51.972;5.650;2023-04-24T15:01:38;14.0;49.3
78467;SHT31;67759;51.972;5.650;2023-04-24T15:04:08;14.0;49.3
78467;SHT31;67759;51.972;5.650;2023-04-24T15:06:38;14.1;48.8
78467;SHT31;67759;51.972;5.650;2023-04-24T15:09:07;14.0;49.8
78467;SHT31;67759;51.972;5.650;2023-04-24T15:11:38;14.0;48.8
78467;SHT31;67759;51.972;5.650;2023-04-24T15:14:07;14.0;49.3
78467;SHT31;67759;51.972;5.650;2023-04-24T15:16:37;13.9;49.5
78467;SHT31;67759;51.972;5.650;2023-04-24T15:19:06;13.8;50.1
78467;SHT31;67759;51.972;5.650;2023-04-24T15:21:37;13.7;49.2
78467;SHT31;67759;51.972;5.650;2023-04-24T15:24:10;13.7;49.3
78467;SHT31;67759;51.972;5.650;2023-04-24T15:26:40;13.6;49.9
78467;SHT31;67759;51.972;5.650;2023-04-24T15:29:11;13.6;51.3
78467;SHT31;67759;51.972;5.650;2023-04-24T15:31:40;13.6;51.8
78467;SHT31;67759;51.972;5.650;2023-04-24T15:34:10;13.6;51.7
78467;SHT31;67759;51.972;5.650;2023-04-24T15:36:40;13.5;50.8
78467;SHT31;67759;51.972;5.650;2023-04-24T15:39:10;13.5;49.0
78467;SHT31;67759;51.972;5.650;2023-04-24T15:41:40;13.5;49.7
78467;SHT31;67759;51.972;5.650;2023-04-24T15:44:09;13.4;50.1
78467;SHT31;67759;51.972;5.650;2023-04-24T15:46:39;13.4;50.9
78467;SHT31;67759;51.972;5.650;2023-04-24T15:49:09;13.5;51.3
78467;SHT31;67759;51.972;5.650;2023-04-24T15:51:39;13.8;51.4
78467;SHT31;67759;51.972;5.650;2023-04-24T15:54:09;14.1;49.3
78467;SHT31;67759;51.972;5.650;2023-04-24T15:56:38;14.3;49.4
78467;SHT31;67759;51.972;5.650;2023-04-24T15:59:08;14.4;49.4
78467;SHT31;67759;51.972;5.650;2023-04-24T16:01:37;14.5;50.5
78467;SHT31;67759;51.972;5.650;2023-04-24T16:04:09;14.6;50.1
78467;SHT31;67759;51.972;5.650;2023-04-24T16:06:40;14.7;49.1
78467;SHT31;67759;51.972;5.650;2023-04-24T16:09:10;14.7;49.0
78467;SHT31;67759;51.972;5.650;2023-04-24T16:11:41;14.6;49.7
78467;SHT31;67759;51.972;5.650;2023-04-24T16:14:13;14.5;49.6
78467;SHT31;67759;51.972;5.650;2023-04-24T16:16:43;14.3;49.1
78467;SHT31;67759;51.972;5.650;2023-04-24T16:19:13;14.2;49.5
78467;SHT31;67759;51.972;5.650;2023-04-24T16:21:43;14.1;48.3
78467;SHT31;67759;51.972;5.650;2023-04-24T16:24:13;13.9;48.3